Allentown, Georgia
Current Conditions -  °F | °C
As of 1:35 PM on Sunday 21 Dec 2014 (Local Time) from KDBN Reporting Station
Moderate Rain Moderate Rain  
Wind Chill: 10°   Ceiling: 3700
Heat Index: 10°   Visibility: 10mi
Dew Point: 10°   Wind: 9mph
Humidity: 100%   Direction: 80°E
Pressure: 30.14"   Gusts: NA
Location:  32.59°N, 83.23°W
Report Text: KDBN 211835Z AUTO 08008KT 10SM RA SCT015 OVC037 10/10 A3014 RMK AO2
Loading
Personal Weather Stations






























Interactive Weather Map New forecast layout! Learn more

10-Day Weather Forecast

Advertisements
Track Severe Weather on mobile